Virginia City, Montana
Current Conditions -  °F | °C
As of 3:53 PM on Saturday 25 Oct 2014 (Local Time) from KDLN Reporting Station
Clear Clear  
Wind Chill: 69°   Ceiling: Unl
Heat Index: 69°   Visibility: 10mi
Dew Point: 28°   Wind: 24mph
Humidity: 22%   Direction: 180°S
Pressure: 29.82"   Gusts: 36mph
Location:  45.29°N, 111.95°W
Report Text: KDLN 252153Z AUTO 18021G31KT 10SM CLR 21/M02 A2982 RMK AO2 PK WND 18032/2057 SLP067 T02061022
Loading
Personal Weather Stations






























Interactive Weather Map
Tropical Storm Tracking
New forecast layout! Learn more

10-Day Weather Forecast

Advertisements
Track Severe Weather on mobile